Wednesday, October 18, 2017, 2:29 AM CDT
Back to Local

KLBL, Liberal, Liberal Municipal Airport

Location: Liberal, KS, United States Lat: 37.05
Local Time: 2:29 AM CDT ( 7:29 GMT) Lon: -100.967
Time Zone: US/Central Elev: 2883 ft

Show me the last for .
Show Decoded

2017-10-18 01:56 METAR KLBL 180656Z AUTO 23004KT 10SM CLR 09/05 A3000 RMK AO2 SLP141 T00890050 =
2017-10-18 00:56 METAR KLBL 180556Z AUTO 20009KT 10SM CLR 10/06 A3001 RMK AO2 SLP147 6////
                 T01000056 10194 20089 402610011 58010 =
2017-10-17 23:56 METAR KLBL 180456Z AUTO 19009KT 10SM CLR 09/06 A3003 RMK AO2 SLP157 T00940056 =
2017-10-17 22:56 METAR KLBL 180356Z AUTO 14008KT 10SM CLR 12/07 A3003 RMK AO2 SLP159 T01220067 =
2017-10-17 21:56 METAR KLBL 180256Z AUTO 13008KT 10SM CLR 14/07 A3004 RMK AO2 SLP164 T01390067
                 53006 =
2017-10-17 20:56 METAR KLBL 180156Z AUTO 13009KT 10SM CLR 15/07 A3003 RMK AO2 SLP165 T01500067 =
2017-10-17 19:56 METAR KLBL 180056Z AUTO 17004KT 10SM CLR 16/06 A3002 RMK AO2 SLP164 T01610056 =
2017-10-17 18:56 METAR KLBL 172356Z AUTO 20006KT 10SM CLR 20/07 A3002 RMK AO2 SLP160 T02000067
                 10261 20200 56006 =
2017-10-17 17:56 METAR KLBL 172256Z AUTO 16008KT 10SM CLR 24/06 A3003 RMK AO2 SLP153 T02440056 =
2017-10-17 16:56 METAR KLBL 172156Z AUTO 18012KT 10SM CLR 25/04 A3004 RMK AO2 SLP157 T02500044 =
2017-10-17 15:56 METAR KLBL 172056Z AUTO 17013KT 10SM CLR 26/04 A3004 RMK AO2 SLP157 T02610044
                 56030 =
2017-10-17 14:56 METAR KLBL 171956Z AUTO 16011KT 10SM CLR 25/06 A3007 RMK AO2 SLP165 T02500056 =
2017-10-17 13:56 METAR KLBL 171856Z AUTO 15011KT 10SM CLR 23/06 A3010 RMK AO2 SLP181 T02280061 =
2017-10-17 12:56 METAR KLBL 171756Z AUTO 14008KT 10SM CLR 21/06 A3014 RMK AO2 SLP196 T02110061
                 10211 20011 58012 =
2017-10-17 11:56 METAR KLBL 171656Z AUTO 12006KT 10SM CLR 18/06 A3016 RMK AO2 SLP204 T01780061 =
2017-10-17 10:56 METAR KLBL 171556Z AUTO VRB03KT 10SM CLR 14/06 A3017 RMK AO2 SLP211 T01390061 =
2017-10-17 09:56 METAR KLBL 171456Z AUTO 19007KT 10SM CLR 10/06 A3018 RMK AO2 SLP215 T01000056
                 51006 =
2017-10-17 08:56 METAR KLBL 171356Z AUTO 20004KT 10SM CLR 05/03 A3017 RMK AO2 SLP215 T00500033 =
2017-10-17 07:56 METAR KLBL 171256Z AUTO 17003KT 10SM CLR 02/01 A3017 RMK AO2 SLP216 T00220011
                 FZRANO =
2017-10-17 06:56 METAR KLBL 171156Z AUTO 22005KT 10SM CLR 02/00 A3016 RMK AO2 SLP207 T00170000
                 10072 20011 53003 FZRANO =
2017-10-17 05:56 METAR KLBL 171056Z AUTO 00000KT 10SM CLR 05/02 A3016 RMK AO2 SLP202 T00500022 =
2017-10-17 04:56 METAR KLBL 170956Z AUTO 25003KT 10SM CLR 04/02 A3014 RMK AO2 SLP196 T00440022 =
2017-10-17 03:56 METAR KLBL 170856Z AUTO 21007KT 10SM CLR 06/03 A3015 RMK AO2 SLP198 T00560028
                 57009 =
2017-10-17 02:56 METAR KLBL 170756Z AUTO 21009KT 10SM CLR 07/03 A3016 RMK AO2 SLP200 T00670028 =

Support USWX by starting your Amazon purchase here.